Time;durP1;ratioP1;P1;durP2;ratioP2;P2;SDS_P1;SDS_P2;PMS_P1;PMS_P2;Temp;Humidity;BMP_temperature;BMP_pressure;BME280_temperature;BME280_humidity;BME280_pressure;Samples;Min_cycle;Max_cycle;Signal;HPM_P1;HPM_P2
2022/03/23 15:22:01;;;;;;;8.15;3.90;;;5.20;99.90;;;;;;3811759;37;20461;-64
2022/03/23 15:24:29;;;;;;;5.75;3.03;;;5.10;99.90;;;;;;4362962;32;20092;-63
2022/03/23 15:26:55;;;;;;;6.50;3.60;;;5.10;99.90;;;;;;4373671;32;20082;-64
2022/03/23 15:29:21;;;;;;;8.90;3.67;;;5.00;99.90;;;;;;4362052;32;20551;-62
2022/03/23 15:31:47;;;;;;;6.78;3.35;;;5.00;99.90;;;;;;4388359;32;20081;-62
2022/03/23 15:34:14;;;;;;;8.20;3.67;;;5.00;99.90;;;;;;4374893;32;20085;-63
2022/03/23 15:36:41;;;;;;;6.43;3.70;;;5.00;99.90;;;;;;4374851;32;20157;-63
2022/03/23 15:39:09;;;;;;;7.05;3.70;;;5.00;99.90;;;;;;4361964;32;20174;-64
2022/03/23 15:41:36;;;;;;;5.37;3.22;;;4.90;99.90;;;;;;4388892;32;20085;-64
2022/03/23 15:44:08;;;;;;;8.88;3.70;;;4.80;99.90;;;;;;4388718;32;20089;-63
2022/03/23 15:46:35;;;;;;;7.80;3.80;;;4.70;99.90;;;;;;4389464;32;20072;-64
2022/03/23 15:49:03;;;;;;;6.62;3.90;;;4.80;99.90;;;;;;4375299;32;20094;-64
2022/03/23 15:51:30;;;;;;;7.40;3.70;;;4.70;99.90;;;;;;4362627;32;20101;-63
2022/03/23 15:53:57;;;;;;;6.87;3.35;;;4.70;99.90;;;;;;4375575;32;20154;-63
2022/03/23 15:56:24;;;;;;;6.57;3.50;;;4.70;99.90;;;;;;4389579;32;20158;-63
2022/03/23 15:58:51;;;;;;;8.63;3.85;;;4.60;99.90;;;;;;4375164;32;20157;-63
2022/03/23 16:01:18;;;;;;;5.85;3.22;;;4.60;99.90;;;;;;4363065;32;20425;-62
2022/03/23 16:03:46;;;;;;;9.23;3.80;;;4.60;99.90;;;;;;4364142;32;20526;-64
2022/03/23 16:06:13;;;;;;;7.85;3.72;;;4.50;99.90;;;;;;4376632;32;20116;-64
2022/03/23 16:08:39;;;;;;;5.37;3.15;;;4.30;99.90;;;;;;4363790;32;20077;-64
2022/03/23 16:11:07;;;;;;;6.65;3.55;;;4.30;99.90;;;;;;4375342;32;20105;-64
2022/03/23 16:13:34;;;;;;;5.35;3.53;;;4.30;99.90;;;;;;4389501;32;20076;-63
2022/03/23 16:16:01;;;;;;;6.62;3.95;;;4.30;99.90;;;;;;4376006;32;20085;-63
2022/03/23 16:18:28;;;;;;;6.95;3.70;;;4.30;99.90;;;;;;4363526;32;20074;-63
2022/03/23 16:20:54;;;;;;;9.43;4.07;;;4.20;99.90;;;;;;4398323;32;20081;-63
2022/03/23 16:23:21;;;;;;;6.80;3.78;;;4.20;99.90;;;;;;4405529;32;20156;-63
2022/03/23 16:25:47;;;;;;;6.43;3.53;;;4.10;99.90;;;;;;4395026;32;20072;-64
2022/03/23 16:28:14;;;;;;;9.05;4.05;;;4.10;99.90;;;;;;4381525;32;20135;-64
2022/03/23 16:30:40;;;;;;;7.05;3.75;;;4.10;99.90;;;;;;4393310;32;20169;-66
2022/03/23 16:33:07;;;;;;;6.28;4.12;;;4.10;99.90;;;;;;4384725;32;20073;-64
2022/03/23 16:35:37;;;;;;;6.12;4.00;;;4.00;99.90;;;;;;4369986;32;20086;-63
2022/03/23 16:38:05;;;;;;;8.93;3.62;;;4.00;99.90;;;;;;4382077;32;20163;-63
2022/03/23 16:40:31;;;;;;;5.05;3.50;;;3.90;99.90;;;;;;4356311;32;20083;-64
2022/03/23 16:43:04;;;;;;;7.32;3.65;;;3.90;99.90;;;;;;4382400;32;20169;-63
2022/03/23 16:45:31;;;;;;;7.10;4.25;;;3.90;99.90;;;;;;4367915;32;20078;-62
2022/03/23 16:47:58;;;;;;;6.82;3.50;;;4.00;99.90;;;;;;4364799;32;20066;-63
2022/03/23 16:50:26;;;;;;;7.35;3.97;;;3.90;99.90;;;;;;4364751;32;20093;-64
2022/03/23 16:52:55;;;;;;;6.97;4.18;;;3.80;99.90;;;;;;4364209;32;20077;-64
2022/03/23 16:55:24;;;;;;;7.00;4.00;;;3.80;99.90;;;;;;4352709;32;20062;-64
2022/03/23 16:57:51;;;;;;;6.43;4.00;;;3.80;99.90;;;;;;4366221;32;20520;-63
2022/03/23 17:00:18;;;;;;;8.68;3.92;;;3.90;99.90;;;;;;4377872;32;20078;-62
2022/03/23 17:13:46;;;;;;;7.22;3.95;;;3.80;99.90;;;;;;4366499;32;20090;-64
2022/03/23 17:16:14;;;;;;;7.75;3.85;;;3.80;99.90;;;;;;4363885;32;20082;-62
2022/03/23 17:18:44;;;;;;;8.77;4.60;;;3.70;99.90;;;;;;4364101;32;20082;-63
2022/03/23 17:21:12;;;;;;;7.68;4.22;;;3.70;99.90;;;;;;4377993;32;20079;-62
2022/03/23 17:23:38;;;;;;;8.60;4.05;;;3.70;99.90;;;;;;4351896;32;20085;-63
2022/03/23 17:26:06;;;;;;;5.60;3.70;;;3.60;99.90;;;;;;4364089;32;20162;-64
2022/03/23 17:28:35;;;;;;;7.00;4.10;;;3.50;99.90;;;;;;4364117;32;20093;-64
2022/03/23 17:31:03;;;;;;;10.70;4.57;;;3.50;99.90;;;;;;4364738;32;20504;-64
2022/03/23 17:33:29;;;;;;;7.68;3.85;;;3.50;99.90;;;;;;4377660;32;20105;-64
2022/03/23 17:36:00;;;;;;;9.68;4.25;;;3.50;99.90;;;;;;4364359;32;20182;-64
2022/03/23 17:38:28;;;;;;;7.15;4.10;;;3.50;99.90;;;;;;4377405;32;20145;-63
2022/03/23 17:40:57;;;;;;;7.55;4.28;;;3.50;99.90;;;;;;4377427;32;20521;-64
2022/03/23 17:43:23;;;;;;;7.53;4.22;;;3.50;99.90;;;;;;4376567;32;20520;-64
2022/03/23 17:45:51;;;;;;;6.75;4.10;;;3.40;99.90;;;;;;4363855;32;20136;-63
2022/03/23 17:48:17;;;;;;;9.30;4.03;;;3.40;99.90;;;;;;4377351;32;20085;-63
2022/03/23 17:50:43;;;;;;;7.85;4.32;;;3.40;99.90;;;;;;4378200;32;20074;-64
2022/03/23 17:53:10;;;;;;;7.82;4.20;;;3.30;99.90;;;;;;4363728;32;20070;-64
2022/03/23 17:55:37;;;;;;;7.82;5.05;;;3.20;99.90;;;;;;4363794;32;20592;-64
2022/03/23 17:58:04;;;;;;;6.18;3.95;;;3.20;99.90;;;;;;4363459;32;20445;-62
2022/03/23 18:00:31;;;;;;;7.85;3.92;;;3.30;99.90;;;;;;4377814;32;20085;-63
2022/03/23 18:02:58;;;;;;;10.32;4.60;;;3.20;99.90;;;;;;4363770;32;20101;-63
2022/03/23 18:05:24;;;;;;;7.22;4.25;;;3.20;99.90;;;;;;4377109;32;20162;-64
2022/03/23 18:07:50;;;;;;;8.55;4.60;;;3.10;99.90;;;;;;4363536;32;20078;-64
2022/03/23 18:10:17;;;;;;;9.80;4.50;;;3.10;99.90;;;;;;4377259;32;20153;-63
2022/03/23 18:12:43;;;;;;;7.53;4.30;;;3.10;99.90;;;;;;4363210;32;20097;-63
2022/03/23 18:15:15;;;;;;;7.82;4.37;;;3.10;99.90;;;;;;4351035;32;20093;-64
2022/03/23 18:17:43;;;;;;;7.55;4.15;;;3.10;99.90;;;;;;4363092;32;20077;-63
2022/03/23 18:20:10;;;;;;;7.32;3.87;;;3.00;99.90;;;;;;4362699;32;20082;-64
2022/03/23 18:22:37;;;;;;;7.12;4.57;;;3.10;99.90;;;;;;4363109;32;20062;-63
2022/03/23 18:25:04;;;;;;;8.52;4.37;;;3.10;99.90;;;;;;4362780;32;20081;-63
2022/03/23 18:27:30;;;;;;;9.00;4.97;;;3.00;99.90;;;;;;4376972;32;20166;-63
2022/03/23 18:29:57;;;;;;;8.00;4.18;;;2.90;99.90;;;;;;4362601;32;20576;-64
2022/03/23 18:32:23;;;;;;;8.13;4.15;;;2.90;99.90;;;;;;4363481;32;20075;-64
2022/03/23 18:34:49;;;;;;;9.48;4.12;;;3.00;99.90;;;;;;4376807;32;20078;-63
2022/03/23 18:37:16;;;;;;;11.30;4.50;;;3.00;99.90;;;;;;4376851;32;20500;-64
2022/03/23 18:39:42;;;;;;;6.10;3.95;;;2.90;99.90;;;;;;4377107;32;20180;-64
2022/03/23 18:42:08;;;;;;;6.65;4.03;;;2.80;99.90;;;;;;4363077;32;20085;-64
2022/03/23 18:44:35;;;;;;;8.35;4.00;;;2.90;99.90;;;;;;4377050;32;20463;-62
2022/03/23 18:47:01;;;;;;;8.30;4.50;;;2.80;99.90;;;;;;4363348;32;20078;-62
2022/03/23 18:49:27;;;;;;;8.25;4.18;;;2.80;99.90;;;;;;4350445;32;20093;-63
2022/03/23 18:51:54;;;;;;;8.05;4.30;;;2.80;99.90;;;;;;4376517;32;20077;-63
2022/03/23 18:54:20;;;;;;;8.75;4.45;;;2.70;99.90;;;;;;4362461;32;20078;-64
2022/03/23 18:56:46;;;;;;;7.82;4.20;;;2.80;99.90;;;;;;4376478;32;20074;-64
2022/03/23 18:59:13;;;;;;;7.80;4.07;;;2.80;99.90;;;;;;4376255;32;20119;-64
2022/03/23 19:01:40;;;;;;;9.25;4.00;;;2.70;99.90;;;;;;4376373;32;20471;-62
2022/03/23 19:04:07;;;;;;;9.00;4.50;;;2.80;99.90;;;;;;4350351;32;20079;-64
2022/03/23 19:06:34;;;;;;;7.68;3.90;;;2.70;99.90;;;;;;4362608;32;20072;-64
2022/03/23 19:09:01;;;;;;;7.55;4.03;;;2.70;99.90;;;;;;4350123;32;20075;-64
2022/03/23 19:11:27;;;;;;;8.55;4.40;;;2.70;99.90;;;;;;4349960;32;20069;-64
2022/03/23 19:13:53;;;;;;;6.37;3.90;;;2.70;99.90;;;;;;4376705;32;20164;-64
2022/03/23 19:16:20;;;;;;;7.15;4.00;;;2.60;99.90;;;;;;4376716;32;20067;-63
2022/03/23 19:18:46;;;;;;;7.95;4.37;;;2.60;99.90;;;;;;4362521;32;20252;-63
2022/03/23 19:21:12;;;;;;;6.75;4.10;;;2.60;99.90;;;;;;4362174;32;20102;-64
2022/03/23 19:23:40;;;;;;;6.97;4.70;;;2.50;99.90;;;;;;4362497;32;20158;-64
2022/03/23 19:26:08;;;;;;;7.18;3.75;;;2.60;99.90;;;;;;4376118;32;20160;-64
2022/03/23 19:28:35;;;;;;;6.82;4.00;;;2.50;99.90;;;;;;4362329;32;20082;-63
2022/03/23 19:31:01;;;;;;;7.93;4.50;;;2.40;99.90;;;;;;4362632;32;20231;-64
2022/03/23 19:33:28;;;;;;;6.35;4.00;;;2.40;99.90;;;;;;4376382;32;20089;-63
2022/03/23 19:35:55;;;;;;;10.60;4.32;;;2.50;99.90;;;;;;4376117;32;20094;-63
2022/03/23 19:38:24;;;;;;;7.05;4.18;;;2.40;99.90;;;;;;4350402;32;20088;-64
2022/03/23 19:40:51;;;;;;;9.07;4.32;;;2.30;99.90;;;;;;4362133;32;20157;-63
2022/03/23 19:43:18;;;;;;;7.28;4.00;;;2.10;99.90;;;;;;4349510;32;20528;-63
2022/03/23 19:45:44;;;;;;;6.00;4.05;;;2.30;99.90;;;;;;4362053;32;20509;-64
2022/03/23 19:48:11;;;;;;;7.45;4.50;;;2.30;99.90;;;;;;4362167;32;20096;-64
2022/03/23 19:50:37;;;;;;;8.00;4.12;;;2.20;99.90;;;;;;4362212;32;20069;-63
2022/03/23 19:53:04;;;;;;;7.80;4.47;;;2.20;99.90;;;;;;4361854;32;20539;-62
2022/03/23 19:55:31;;;;;;;8.63;4.07;;;2.30;99.90;;;;;;4361808;32;20528;-64
2022/03/23 19:57:57;;;;;;;7.70;4.20;;;2.20;99.90;;;;;;4362342;32;20080;-62
2022/03/23 20:00:24;;;;;;;7.62;4.37;;;1.90;99.90;;;;;;4376116;32;20120;-64
2022/03/23 20:02:51;;;;;;;7.53;4.12;;;2.30;99.90;;;;;;4376081;32;20082;-64
2022/03/23 20:05:19;;;;;;;7.55;4.10;;;2.30;99.90;;;;;;4362450;32;20109;-63
2022/03/23 20:07:47;;;;;;;6.50;4.10;;;2.30;99.90;;;;;;4363784;32;20089;-64
2022/03/23 20:10:14;;;;;;;7.03;4.22;;;2.20;99.90;;;;;;4379243;32;20509;-64
2022/03/23 20:12:40;;;;;;;10.20;4.57;;;2.20;99.90;;;;;;4378706;32;20089;-63
2022/03/23 20:15:08;;;;;;;6.65;4.18;;;2.20;99.90;;;;;;4378516;32;20544;-64
2022/03/23 20:17:35;;;;;;;8.30;4.28;;;2.10;99.90;;;;;;4378891;32;20527;-64
2022/03/23 20:20:03;;;;;;;7.45;4.07;;;2.10;99.90;;;;;;4364866;32;20089;-62
2022/03/23 20:22:29;;;;;;;6.62;4.20;;;2.00;99.90;;;;;;4365081;32;20492;-64
2022/03/23 20:24:55;;;;;;;8.63;4.15;;;2.00;99.90;;;;;;4365197;32;20096;-63
2022/03/23 20:27:22;;;;;;;9.00;4.22;;;1.90;99.90;;;;;;4378706;32;20097;-65
2022/03/23 20:29:48;;;;;;;8.93;4.28;;;1.90;99.90;;;;;;4364825;32;20168;-64
2022/03/23 20:32:15;;;;;;;7.85;4.37;;;1.90;99.90;;;;;;4378603;32;20092;-64
2022/03/23 20:34:41;;;;;;;6.60;4.15;;;1.90;99.90;;;;;;4378562;32;20078;-64
2022/03/23 20:37:08;;;;;;;7.53;4.32;;;1.90;99.90;;;;;;4364298;32;20556;-64
2022/03/23 20:39:34;;;;;;;7.60;4.40;;;1.80;99.90;;;;;;4378470;32;20520;-63
2022/03/23 20:42:00;;;;;;;5.97;3.95;;;1.80;99.90;;;;;;4378521;32;20078;-64
2022/03/23 20:44:27;;;;;;;8.55;4.28;;;1.80;99.90;;;;;;4378486;32;20085;-64
2022/03/23 20:46:53;;;;;;;9.13;4.47;;;1.90;99.90;;;;;;4364743;32;20080;-64
2022/03/23 20:49:20;;;;;;;7.85;4.60;;;1.60;99.90;;;;;;4364274;32;20090;-64
2022/03/23 20:51:46;;;;;;;8.15;5.50;;;1.70;99.90;;;;;;4364359;32;20116;-64
2022/03/23 20:54:13;;;;;;;7.40;5.05;;;1.80;99.90;;;;;;4378008;32;20526;-63
2022/03/23 20:56:39;;;;;;;8.68;4.62;;;1.80;99.90;;;;;;4364502;32;20081;-64
2022/03/23 20:59:06;;;;;;;7.85;4.60;;;1.80;99.90;;;;;;4378142;32;20456;-63
2022/03/23 21:01:33;;;;;;;8.07;4.30;;;1.70;99.90;;;;;;4351758;32;20085;-64
2022/03/23 21:03:59;;;;;;;9.52;4.37;;;1.70;99.90;;;;;;4378156;32;20551;-64
2022/03/23 21:06:28;;;;;;;7.70;4.03;;;1.80;99.90;;;;;;4352379;32;20089;-64
2022/03/23 21:08:55;;;;;;;7.53;4.22;;;1.80;99.90;;;;;;4364823;32;20543;-64
2022/03/23 21:11:22;;;;;;;7.35;3.90;;;1.90;99.90;;;;;;4377583;32;20078;-64
2022/03/23 21:13:50;;;;;;;8.25;4.30;;;1.80;99.90;;;;;;4363939;32;20066;-64
2022/03/23 21:16:18;;;;;;;9.07;4.28;;;1.70;99.90;;;;;;4378289;32;20070;-63
2022/03/23 21:18:45;;;;;;;8.70;4.60;;;1.80;99.90;;;;;;4377777;32;20078;-63
2022/03/23 21:21:11;;;;;;;7.75;4.45;;;1.70;99.90;;;;;;4361392;32;20086;-63
2022/03/23 21:23:38;;;;;;;8.70;4.28;;;1.80;99.90;;;;;;4361959;32;20075;-64
2022/03/23 21:26:05;;;;;;;8.32;4.45;;;1.70;99.90;;;;;;4361329;32;20083;-63
2022/03/23 21:28:31;;;;;;;6.53;4.20;;;1.70;99.90;;;;;;4362924;32;20086;-63
2022/03/23 21:31:02;;;;;;;11.27;5.03;;;1.80;99.90;;;;;;4362136;32;20075;-64
2022/03/23 21:33:30;;;;;;;7.90;4.53;;;1.70;99.90;;;;;;4361943;32;20121;-63
2022/03/23 21:35:57;;;;;;;6.43;4.12;;;1.70;99.90;;;;;;4361789;32;20070;-62
2022/03/23 21:38:26;;;;;;;6.65;4.45;;;1.70;99.90;;;;;;4363132;32;20077;-64
2022/03/23 21:40:53;;;;;;;6.97;4.32;;;1.70;99.90;;;;;;4361677;32;20106;-63
2022/03/23 21:43:19;;;;;;;7.85;4.40;;;1.70;99.90;;;;;;4362823;32;20516;-64
2022/03/23 21:45:46;;;;;;;8.20;4.45;;;1.70;99.90;;;;;;4362633;32;20078;-62
2022/03/23 21:48:12;;;;;;;6.70;4.15;;;1.70;99.90;;;;;;4361626;32;20512;-62
2022/03/23 21:50:39;;;;;;;8.80;4.70;;;1.70;99.90;;;;;;4361617;32;20166;-64
2022/03/23 21:53:06;;;;;;;8.35;4.35;;;1.70;99.90;;;;;;4370722;32;20531;-64
2022/03/23 21:55:32;;;;;;;10.55;4.57;;;1.60;99.90;;;;;;4372589;32;20090;-63
2022/03/23 21:57:59;;;;;;;7.28;4.28;;;1.70;99.90;;;;;;4370768;32;20075;-64
2022/03/23 22:00:28;;;;;;;9.65;5.00;;;1.70;99.90;;;;;;4365105;32;20082;-64
2022/03/23 22:05:35;;;;;;;8.00;4.50;;;1.50;99.90;;;;;;3857320;37;20054;-64
2022/03/23 22:08:02;;;;;;;10.32;4.20;;;1.50;99.90;;;;;;4420395;32;20262;-64
2022/03/23 22:10:28;;;;;;;7.78;4.68;;;1.50;99.90;;;;;;4419946;32;20069;-64
2022/03/23 22:12:55;;;;;;;9.00;4.50;;;1.50;99.90;;;;;;4406846;32;20070;-63
2022/03/23 22:15:21;;;;;;;9.98;4.43;;;1.40;99.90;;;;;;4405034;32;20081;-62
2022/03/23 22:17:47;;;;;;;9.05;5.10;;;1.50;99.90;;;;;;4403230;32;20088;-63
2022/03/23 22:20:16;;;;;;;7.97;4.30;;;1.30;99.90;;;;;;4404406;32;20160;-64
2022/03/23 22:22:43;;;;;;;7.70;4.12;;;1.30;99.90;;;;;;4406042;32;20504;-63
2022/03/23 22:25:11;;;;;;;7.47;4.75;;;1.50;99.90;;;;;;4404163;32;20561;-64
2022/03/23 22:27:37;;;;;;;7.82;4.45;;;1.50;99.90;;;;;;4390468;32;20479;-63
2022/03/23 22:30:07;;;;;;;8.40;4.65;;;1.30;99.90;;;;;;4402823;32;20508;-64
2022/03/23 22:32:34;;;;;;;8.35;4.78;;;1.40;99.90;;;;;;4403168;32;20077;-63
2022/03/23 22:35:00;;;;;;;6.97;4.12;;;1.40;99.90;;;;;;4402890;32;20105;-64
2022/03/23 22:37:27;;;;;;;8.80;4.32;;;1.30;99.90;;;;;;4402775;32;20069;-64
2022/03/23 22:39:57;;;;;;;8.02;4.60;;;1.40;99.90;;;;;;4402782;32;20104;-65
2022/03/23 22:42:24;;;;;;;8.30;5.07;;;1.30;99.90;;;;;;4404448;32;20089;-64
2022/03/23 22:44:51;;;;;;;7.93;4.50;;;1.30;99.90;;;;;;4402806;32;20597;-65
2022/03/23 22:47:18;;;;;;;7.78;4.60;;;1.40;99.90;;;;;;4390018;32;20081;-64
2022/03/23 22:49:45;;;;;;;8.95;5.30;;;1.40;99.90;;;;;;4402636;32;20065;-63
2022/03/23 22:52:11;;;;;;;7.32;4.37;;;1.20;99.90;;;;;;4402631;32;20077;-64
2022/03/23 22:54:38;;;;;;;8.38;4.68;;;1.20;99.90;;;;;;4402581;32;20069;-64
2022/03/23 22:57:05;;;;;;;10.18;5.05;;;1.30;99.90;;;;;;4402847;32;20081;-64
2022/03/23 22:59:31;;;;;;;8.75;4.65;;;1.30;99.90;;;;;;4415330;32;20167;-62
2022/03/23 23:01:57;;;;;;;7.65;4.97;;;1.30;99.90;;;;;;4403825;32;20079;-63
2022/03/23 23:04:24;;;;;;;8.43;4.55;;;1.20;99.90;;;;;;4403164;32;20088;-64
2022/03/23 23:06:50;;;;;;;6.22;3.87;;;1.30;99.90;;;;;;4403455;32;20101;-63
2022/03/23 23:09:16;;;;;;;8.90;4.20;;;1.40;99.90;;;;;;4402827;32;20447;-63
2022/03/23 23:11:43;;;;;;;8.63;4.37;;;1.20;99.90;;;;;;4402268;32;20074;-64
2022/03/23 23:14:10;;;;;;;8.05;4.20;;;1.20;99.90;;;;;;4402698;32;20580;-63
2022/03/23 23:16:37;;;;;;;7.07;4.62;;;1.30;99.90;;;;;;4395304;32;20093;-64
2022/03/23 23:19:04;;;;;;;8.45;4.20;;;1.40;99.90;;;;;;4379545;32;20081;-63
2022/03/23 23:21:30;;;;;;;8.75;4.12;;;1.30;99.90;;;;;;4392005;32;20519;-64
2022/03/23 23:23:56;;;;;;;7.37;4.70;;;1.40;99.90;;;;;;4392064;32;20124;-63
2022/03/23 23:26:27;;;;;;;8.48;4.37;;;1.30;99.90;;;;;;4392367;32;20456;-64
2022/03/23 23:28:55;;;;;;;6.72;4.30;;;1.30;99.90;;;;;;4393633;32;20089;-62
2022/03/23 23:31:22;;;;;;;10.70;4.68;;;1.30;99.90;;;;;;4379199;32;20058;-63
2022/03/23 23:33:50;;;;;;;8.32;4.30;;;1.30;99.90;;;;;;4379233;32;20177;-63
2022/03/23 23:36:16;;;;;;;7.18;4.15;;;1.20;99.90;;;;;;4392236;32;20125;-64
2022/03/23 23:38:44;;;;;;;8.68;4.72;;;1.20;99.90;;;;;;4392247;32;20158;-64
2022/03/23 23:41:11;;;;;;;8.73;4.78;;;1.30;99.90;;;;;;4391723;32;20456;-64
2022/03/23 23:43:37;;;;;;;7.75;4.75;;;1.30;99.90;;;;;;4391938;32;20072;-63
2022/03/23 23:46:05;;;;;;;9.30;4.47;;;1.20;99.90;;;;;;4393227;32;20089;-63
2022/03/23 23:48:31;;;;;;;6.12;4.30;;;1.30;99.90;;;;;;4391954;32;20080;-62
2022/03/23 23:50:58;;;;;;;8.23;4.50;;;1.30;99.90;;;;;;4367472;32;20077;-63
2022/03/23 23:53:26;;;;;;;6.43;4.40;;;1.40;99.90;;;;;;4392116;32;20082;-64
2022/03/23 23:55:52;;;;;;;8.95;4.43;;;1.30;99.90;;;;;;4379347;32;20517;-64
2022/03/23 23:58:19;;;;;;;8.00;4.78;;;1.30;99.90;;;;;;4391581;32;20179;-63
